Time;durP1;ratioP1;P1;durP2;ratioP2;P2;SDS_P1;SDS_P2;PMS_P1;PMS_P2;Temp;Humidity;BMP_temperature;BMP_pressure;BME280_temperature;BME280_humidity;BME280_pressure;Samples;Min_cycle;Max_cycle;Signal;HPM_P1;HPM_P2
2023/01/28 00:01:50;;;;;;;391.13;173.90;;;;;;;;;;4991279;28;20258;-52
2023/01/28 00:04:17;;;;;;;402.03;179.73;;;;;;;;;;5019643;28;20274;-54
2023/01/28 00:06:43;;;;;;;430.83;189.97;;;;;;;;;;4995327;28;20786;-54
2023/01/28 00:09:09;;;;;;;363.70;161.73;;;;;;;;;;5011972;28;20391;-53
2023/01/28 00:11:35;;;;;;;385.33;180.10;;;;;;;;;;4975032;28;20298;-52
2023/01/28 00:14:03;;;;;;;415.47;185.27;;;;;;;;;;4996548;28;20535;-53
2023/01/28 00:16:30;;;;;;;392.57;184.33;;;;;;;;;;4978335;28;20218;-54
2023/01/28 00:18:56;;;;;;;445.33;203.90;;;;;;;;;;4968958;28;20214;-53
2023/01/28 00:21:22;;;;;;;356.93;163.70;;;;;;;;;;4989532;28;20328;-53
2023/01/28 00:23:53;;;;;;;399.43;182.07;;;;;;;;;;5008982;28;20222;-53
2023/01/28 00:26:19;;;;;;;368.00;171.53;;;;;;;;;;4982018;28;20692;-54
2023/01/28 00:28:46;;;;;;;416.57;197.33;;;;;;;;;;4993535;28;21557;-53
2023/01/28 00:31:17;;;;;;;453.47;213.77;;;;;;;;;;4995436;28;20583;-53
2023/01/28 00:33:43;;;;;;;464.20;214.47;;;;;;;;;;4987070;28;20275;-53
2023/01/28 00:36:10;;;;;;;452.60;205.00;;;;;;;;;;4975318;28;20245;-52
2023/01/28 00:38:36;;;;;;;360.27;164.43;;;;;;;;;;4966271;28;22177;-53
2023/01/28 00:41:09;;;;;;;422.33;196.80;;;;;;;;;;4979358;28;20232;-54
2023/01/28 00:43:35;;;;;;;446.83;210.40;;;;;;;;;;4969976;28;20587;-53
2023/01/28 00:46:01;;;;;;;405.13;183.80;;;;;;;;;;4979654;28;20222;-53
2023/01/28 00:48:27;;;;;;;350.93;168.13;;;;;;;;;;4964690;28;20257;-54
2023/01/28 00:50:53;;;;;;;429.27;201.77;;;;;;;;;;4985416;28;20225;-52
2023/01/28 00:53:19;;;;;;;392.83;185.23;;;;;;;;;;4984405;28;20194;-53
2023/01/28 00:55:45;;;;;;;452.80;210.67;;;;;;;;;;4977221;28;20229;-54
2023/01/28 00:58:11;;;;;;;470.77;221.90;;;;;;;;;;4972441;28;20226;-54
2023/01/28 01:03:12;;;;;;;368.47;186.77;;;;;;;;;;4995206;28;20879;-49
2023/01/28 01:05:38;;;;;;;362.27;180.50;;;;;;;;;;5017672;28;20209;-50
2023/01/28 01:08:04;;;;;;;433.77;222.57;;;;;;;;;;5006440;28;20723;-49
2023/01/28 01:10:31;;;;;;;350.17;176.93;;;;;;;;;;4998984;28;20851;-49
2023/01/28 01:12:58;;;;;;;355.83;182.67;;;;;;;;;;4988741;28;20226;-51
2023/01/28 01:15:24;;;;;;;333.57;167.87;;;;;;;;;;4996013;28;20218;-51
2023/01/28 01:17:50;;;;;;;386.67;196.40;;;;;;;;;;4999276;28;20559;-48
2023/01/28 01:20:20;;;;;;;361.87;178.63;;;;;;;;;;4970773;28;20928;-49
2023/01/28 01:22:46;;;;;;;379.23;194.60;;;;;;;;;;4988094;28;20229;-49
2023/01/28 01:25:13;;;;;;;320.93;167.70;;;;;;;;;;4991150;28;20210;-49
2023/01/28 01:27:39;;;;;;;342.67;172.53;;;;;;;;;;4996899;28;20304;-49
2023/01/28 01:30:07;;;;;;;350.70;186.00;;;;;;;;;;4972447;28;20373;-51
2023/01/28 01:32:36;;;;;;;325.53;170.70;;;;;;;;;;4985036;28;20275;-51
2023/01/28 01:35:05;;;;;;;338.00;173.70;;;;;;;;;;4983758;28;20249;-51
2023/01/28 01:37:31;;;;;;;379.77;194.97;;;;;;;;;;4980359;28;20271;-48
2023/01/28 01:39:57;;;;;;;394.63;200.17;;;;;;;;;;4990918;28;20241;-49
2023/01/28 01:42:27;;;;;;;361.90;182.07;;;;;;;;;;4992711;28;20282;-49
2023/01/28 01:45:07;;;;;;;332.90;169.77;;;;;;;;;;5016448;28;20332;-48
2023/01/28 01:47:42;;;;;;;343.93;177.43;;;;;;;;;;4983968;28;20789;-48
2023/01/28 01:50:30;;;;;;;410.13;207.47;;;;;;;;;;4991921;28;20247;-48
2023/01/28 01:52:58;;;;;;;297.30;150.40;;;;;;;;;;4996526;28;20225;-49
2023/01/28 01:55:27;;;;;;;378.17;191.93;;;;;;;;;;4996941;28;20420;-49
2023/01/28 01:57:55;;;;;;;320.30;168.60;;;;;;;;;;4990230;28;20213;-50
2023/01/28 02:00:21;;;;;;;340.20;169.73;;;;;;;;;;4991182;28;20313;-49
2023/01/28 02:02:48;;;;;;;413.27;207.87;;;;;;;;;;4985758;28;20262;-49
2023/01/28 02:05:16;;;;;;;331.13;172.60;;;;;;;;;;5005215;28;20197;-52
2023/01/28 02:07:44;;;;;;;295.97;153.40;;;;;;;;;;5035393;28;20214;-51
2023/01/28 02:10:11;;;;;;;366.07;181.43;;;;;;;;;;5021665;28;20600;-50
2023/01/28 02:12:40;;;;;;;361.90;180.60;;;;;;;;;;4997591;28;20269;-49
2023/01/28 02:15:08;;;;;;;387.37;198.83;;;;;;;;;;4991697;28;20214;-50
2023/01/28 02:17:35;;;;;;;296.33;159.40;;;;;;;;;;4985459;28;20302;-49
2023/01/28 02:20:09;;;;;;;326.47;178.93;;;;;;;;;;4980500;28;21197;-49
2023/01/28 02:22:35;;;;;;;372.33;187.67;;;;;;;;;;4993135;28;21643;-49
2023/01/28 02:25:01;;;;;;;308.83;153.23;;;;;;;;;;4998688;28;20225;-49
2023/01/28 02:27:34;;;;;;;321.90;171.20;;;;;;;;;;5005546;28;20265;-49
2023/01/28 02:30:12;;;;;;;315.67;166.07;;;;;;;;;;4978355;28;20735;-49
2023/01/28 02:32:48;;;;;;;354.10;182.63;;;;;;;;;;4996788;28;20680;-49
2023/01/28 02:35:14;;;;;;;362.53;187.80;;;;;;;;;;4983151;28;21131;-49
2023/01/28 02:37:43;;;;;;;362.00;187.80;;;;;;;;;;5000750;28;20245;-50
2023/01/28 02:40:10;;;;;;;331.87;173.30;;;;;;;;;;4992003;28;20212;-50
2023/01/28 02:42:37;;;;;;;314.23;182.40;;;;;;;;;;4988254;28;20590;-49
2023/01/28 02:45:12;;;;;;;312.67;163.20;;;;;;;;;;4988811;28;20266;-49
2023/01/28 02:47:56;;;;;;;391.83;204.07;;;;;;;;;;4984843;28;20189;-49
2023/01/28 02:50:23;;;;;;;346.53;177.20;;;;;;;;;;5000428;28;20234;-49
2023/01/28 02:55:44;;;;;;;337.80;171.40;;;;;;;;;;4984784;28;20244;-50
2023/01/28 02:58:29;;;;;;;373.83;188.53;;;;;;;;;;4989372;28;20325;-49
2023/01/28 03:00:58;;;;;;;403.43;203.63;;;;;;;;;;4983749;28;20729;-49
2023/01/28 03:03:33;;;;;;;368.50;193.20;;;;;;;;;;4978958;28;20583;-49
2023/01/28 03:06:07;;;;;;;396.83;202.60;;;;;;;;;;4975978;28;20305;-49
2023/01/28 03:39:06;;;;;;;382.47;201.30;;;;;;;;;;4981306;28;20220;-49
2023/01/28 03:41:32;;;;;;;370.77;189.13;;;;;;;;;;4996652;28;20228;-49
2023/01/28 03:46:44;;;;;;;288.60;157.37;;;;;;;;;;5003449;28;20216;-51
2023/01/28 03:49:10;;;;;;;309.87;165.93;;;;;;;;;;4997237;28;20336;-50
2023/01/28 03:51:36;;;;;;;293.83;151.80;;;;;;;;;;4991281;28;20248;-51
2023/01/28 03:54:02;;;;;;;378.27;192.03;;;;;;;;;;4987898;28;20535;-49
2023/01/28 03:56:31;;;;;;;316.50;160.00;;;;;;;;;;4985344;28;20174;-49
2023/01/28 03:58:57;;;;;;;375.90;188.03;;;;;;;;;;4991640;28;20214;-49
2023/01/28 04:01:24;;;;;;;340.07;173.23;;;;;;;;;;5016693;28;20311;-48
2023/01/28 04:03:51;;;;;;;355.93;184.50;;;;;;;;;;4995872;28;20271;-49
2023/01/28 04:06:17;;;;;;;352.63;182.30;;;;;;;;;;5021882;28;20210;-50
2023/01/28 04:08:47;;;;;;;372.03;191.47;;;;;;;;;;5033601;28;20256;-49
2023/01/28 04:11:18;;;;;;;372.67;195.17;;;;;;;;;;5030251;28;20253;-49
2023/01/28 04:13:44;;;;;;;337.00;169.43;;;;;;;;;;5012547;28;20909;-49
2023/01/28 04:16:11;;;;;;;377.47;200.80;;;;;;;;;;4979869;28;20367;-49
2023/01/28 04:18:37;;;;;;;397.37;201.47;;;;;;;;;;4985047;28;20284;-49
2023/01/28 04:21:03;;;;;;;394.73;209.63;;;;;;;;;;4972894;28;21139;-49
2023/01/28 04:23:29;;;;;;;319.53;163.73;;;;;;;;;;4996394;28;20201;-49
2023/01/28 04:25:55;;;;;;;323.77;169.17;;;;;;;;;;4992071;28;20185;-49
2023/01/28 04:28:21;;;;;;;358.57;183.30;;;;;;;;;;5012328;28;20231;-49
2023/01/28 04:30:47;;;;;;;403.03;205.77;;;;;;;;;;4984917;28;20684;-50
2023/01/28 04:33:14;;;;;;;381.83;202.13;;;;;;;;;;4993686;28;20218;-49
2023/01/28 04:35:40;;;;;;;362.17;184.70;;;;;;;;;;4993659;28;20178;-49
2023/01/28 04:38:07;;;;;;;433.30;222.73;;;;;;;;;;4975800;28;20273;-49
2023/01/28 04:40:33;;;;;;;344.37;183.97;;;;;;;;;;4971779;28;20221;-49
2023/01/28 04:42:59;;;;;;;366.13;191.60;;;;;;;;;;4989645;28;20830;-50
2023/01/28 04:45:26;;;;;;;364.17;188.70;;;;;;;;;;4999746;28;20222;-49
2023/01/28 04:47:52;;;;;;;320.97;161.87;;;;;;;;;;4994080;28;20222;-49
2023/01/28 04:50:18;;;;;;;426.27;223.30;;;;;;;;;;4991800;28;20201;-49
2023/01/28 04:52:44;;;;;;;397.83;206.67;;;;;;;;;;4977108;28;20293;-49
2023/01/28 04:55:10;;;;;;;293.30;154.60;;;;;;;;;;5016059;28;20245;-49
2023/01/28 04:57:37;;;;;;;348.70;175.90;;;;;;;;;;5011950;28;20330;-50
2023/01/28 05:00:04;;;;;;;374.93;201.93;;;;;;;;;;4996390;28;20625;-50
2023/01/28 05:02:30;;;;;;;326.17;172.47;;;;;;;;;;4979738;28;20673;-50
2023/01/28 05:04:56;;;;;;;322.13;172.10;;;;;;;;;;4987747;28;20621;-50
2023/01/28 05:07:22;;;;;;;333.00;170.97;;;;;;;;;;5001103;28;20285;-49
2023/01/28 05:09:49;;;;;;;308.00;163.57;;;;;;;;;;4985091;28;20266;-49
2023/01/28 05:12:15;;;;;;;333.40;170.83;;;;;;;;;;4991692;28;20461;-49
2023/01/28 05:14:41;;;;;;;388.13;204.37;;;;;;;;;;4996765;28;20617;-49
2023/01/28 05:17:07;;;;;;;338.47;172.73;;;;;;;;;;5018100;28;20609;-49
2023/01/28 05:19:33;;;;;;;343.47;183.20;;;;;;;;;;4992458;28;20723;-49
2023/01/28 05:21:59;;;;;;;301.77;161.60;;;;;;;;;;4985242;28;20291;-50
2023/01/28 05:24:25;;;;;;;308.07;159.70;;;;;;;;;;4996217;28;20270;-49
2023/01/28 05:26:51;;;;;;;356.83;182.70;;;;;;;;;;4998651;28;20233;-49
2023/01/28 05:29:17;;;;;;;339.17;184.13;;;;;;;;;;4994159;28;20403;-49
2023/01/28 05:31:43;;;;;;;362.00;199.00;;;;;;;;;;4989775;28;20288;-49
2023/01/28 05:34:09;;;;;;;351.80;181.97;;;;;;;;;;4987895;28;20237;-50
2023/01/28 05:36:35;;;;;;;369.97;185.60;;;;;;;;;;4993094;28;20275;-49
2023/01/28 05:39:02;;;;;;;351.40;182.00;;;;;;;;;;4989975;28;20599;-49
2023/01/28 05:41:28;;;;;;;335.80;175.47;;;;;;;;;;4997475;28;20296;-50
2023/01/28 05:43:54;;;;;;;327.53;164.70;;;;;;;;;;5005117;28;20266;-49
2023/01/28 05:46:21;;;;;;;343.30;175.03;;;;;;;;;;4989635;28;20688;-49
2023/01/28 05:48:49;;;;;;;359.17;192.57;;;;;;;;;;4996765;28;20714;-49
2023/01/28 05:51:16;;;;;;;292.33;153.60;;;;;;;;;;5008982;28;20356;-49
2023/01/28 05:53:42;;;;;;;395.03;204.70;;;;;;;;;;4986680;28;20274;-49
2023/01/28 05:56:08;;;;;;;313.40;163.77;;;;;;;;;;5003653;28;20822;-50
2023/01/28 05:58:34;;;;;;;319.23;172.10;;;;;;;;;;4976438;28;20305;-50
2023/01/28 06:01:00;;;;;;;311.67;162.03;;;;;;;;;;5006826;28;20241;-50
2023/01/28 06:03:26;;;;;;;371.63;193.00;;;;;;;;;;4987554;28;20432;-50
2023/01/28 06:05:53;;;;;;;383.40;189.33;;;;;;;;;;5005013;28;20230;-49
2023/01/28 06:08:19;;;;;;;321.97;163.13;;;;;;;;;;5042484;28;20237;-50
2023/01/28 06:10:46;;;;;;;401.80;212.50;;;;;;;;;;5018695;28;20377;-49
2023/01/28 06:13:12;;;;;;;321.83;166.17;;;;;;;;;;4991719;28;20747;-49
2023/01/28 06:15:39;;;;;;;325.57;177.13;;;;;;;;;;4980643;28;20213;-49
2023/01/28 06:18:05;;;;;;;313.03;160.23;;;;;;;;;;4997647;28;20225;-49
2023/01/28 06:20:31;;;;;;;323.60;176.90;;;;;;;;;;4997870;28;20548;-49
2023/01/28 06:22:57;;;;;;;331.73;184.73;;;;;;;;;;4988363;28;20205;-49
2023/01/28 06:25:23;;;;;;;326.70;175.67;;;;;;;;;;4988999;28;20289;-49
2023/01/28 06:27:49;;;;;;;471.87;249.60;;;;;;;;;;4991771;28;20236;-49
2023/01/28 06:30:16;;;;;;;451.67;241.87;;;;;;;;;;4990956;28;20239;-50
2023/01/28 06:32:43;;;;;;;436.90;223.13;;;;;;;;;;5007957;28;20721;-50
2023/01/28 06:35:10;;;;;;;413.97;221.93;;;;;;;;;;5031626;28;20210;-50
2023/01/28 06:37:38;;;;;;;509.27;251.63;;;;;;;;;;4976756;28;21862;-50
2023/01/28 06:40:04;;;;;;;404.03;204.67;;;;;;;;;;4985150;28;20256;-49
2023/01/28 06:42:30;;;;;;;395.13;204.37;;;;;;;;;;5002869;28;20302;-48
2023/01/28 06:44:56;;;;;;;488.63;251.17;;;;;;;;;;5019838;28;20229;-48
2023/01/28 06:47:22;;;;;;;459.43;233.37;;;;;;;;;;5026757;28;20467;-48
2023/01/28 06:49:48;;;;;;;480.67;247.10;;;;;;;;;;5046235;28;20244;-50
2023/01/28 06:52:14;;;;;;;403.90;202.43;;;;;;;;;;5025180;28;20209;-49
2023/01/28 06:54:40;;;;;;;409.30;196.27;;;;;;;;;;5016058;28;20214;-49
2023/01/28 06:57:06;;;;;;;388.87;199.00;;;;;;;;;;5026923;28;20897;-49
2023/01/28 06:59:32;;;;;;;493.20;261.03;;;;;;;;;;5012456;28;20541;-49
2023/01/28 07:01:58;;;;;;;392.50;170.63;;;;;;;;;;4990492;22;20226;-50
2023/01/28 07:04:24;;;;;;;376.20;169.73;;;;;;;;;;4955599;28;20214;-50
2023/01/28 07:06:50;;;;;;;391.27;174.60;;;;;;;;;;4959155;28;20306;-50
2023/01/28 07:09:17;;;;;;;347.10;161.50;;;;;;;;;;4956483;28;20241;-50
2023/01/28 07:11:43;;;;;;;403.77;183.53;;;;;;;;;;4944193;28;20559;-50
2023/01/28 07:14:09;;;;;;;344.60;152.87;;;;;;;;;;4959622;28;20194;-50
2023/01/28 07:16:35;;;;;;;333.17;147.90;;;;;;;;;;4964951;28;20301;-50
2023/01/28 07:19:01;;;;;;;360.30;162.17;;;;;;;;;;4968811;28;20313;-50
2023/01/28 07:21:28;;;;;;;404.67;180.17;;;;;;;;;;4928142;28;20221;-50
2023/01/28 07:23:54;;;;;;;418.23;196.13;;;;;;;;;;4942184;28;20760;-50
2023/01/28 07:26:22;;;;;;;388.73;173.20;;;;;;;;;;4963767;28;20731;-50
2023/01/28 07:28:48;;;;;;;380.80;172.83;;;;;;;;;;4955046;28;20234;-51
2023/01/28 07:31:14;;;;;;;379.47;172.63;;;;;;;;;;4950407;28;20624;-51
2023/01/28 07:33:40;;;;;;;420.90;192.00;;;;;;;;;;4956421;28;20845;-50
2023/01/28 07:36:07;;;;;;;349.90;160.47;;;;;;;;;;4945490;28;20262;-50
2023/01/28 07:38:33;;;;;;;378.33;180.50;;;;;;;;;;4956852;28;20178;-50
2023/01/28 07:40:59;;;;;;;386.27;186.50;;;;;;;;;;4940707;28;20362;-51
2023/01/28 07:43:25;;;;;;;401.70;189.63;;;;;;;;;;4948928;28;20824;-50
2023/01/28 07:45:51;;;;;;;372.97;170.37;;;;;;;;;;4954436;28;20253;-51
2023/01/28 07:48:17;;;;;;;302.60;142.97;;;;;;;;;;4956118;28;21325;-50
2023/01/28 07:50:44;;;;;;;358.20;164.67;;;;;;;;;;4951871;28;20253;-50
2023/01/28 07:53:11;;;;;;;322.97;146.47;;;;;;;;;;4961134;28;20214;-50
2023/01/28 07:55:37;;;;;;;375.53;170.50;;;;;;;;;;4954505;28;20218;-50
2023/01/28 07:58:05;;;;;;;346.10;158.80;;;;;;;;;;4966998;28;20225;-49
2023/01/28 08:00:31;;;;;;;397.37;185.50;;;;;;;;;;4956616;28;20270;-50
2023/01/28 08:03:02;;;;;;;318.13;151.53;;;;;;;;;;4944022;28;20236;-50
2023/01/28 08:05:47;;;;;;;417.73;192.73;;;;;;;;;;4937545;28;20267;-50
2023/01/28 08:08:13;;;;;;;390.50;184.73;;;;;;;;;;4944529;28;20218;-50
2023/01/28 08:10:40;;;;;;;364.00;174.17;;;;;;;;;;4941890;28;20273;-50
2023/01/28 08:13:07;;;;;;;292.13;141.13;;;;;;;;;;4944877;28;21109;-50
2023/01/28 08:15:37;;;;;;;304.13;151.97;;;;;;;;;;4944690;28;20306;-49
2023/01/28 08:18:05;;;;;;;455.50;230.43;;;;;;;;;;4926897;28;21085;-49
2023/01/28 08:20:31;;;;;;;367.13;175.97;;;;;;;;;;4946984;28;20190;-50
2023/01/28 08:23:06;;;;;;;413.17;199.57;;;;;;;;;;4941292;28;20308;-50
2023/01/28 08:25:33;;;;;;;377.67;181.63;;;;;;;;;;4941389;28;20220;-50
2023/01/28 08:27:59;;;;;;;397.53;194.07;;;;;;;;;;4938758;28;20226;-50
2023/01/28 08:30:25;;;;;;;353.50;175.10;;;;;;;;;;4940568;28;20333;-50
2023/01/28 08:32:54;;;;;;;402.43;192.23;;;;;;;;;;4943380;28;20236;-50
2023/01/28 08:35:21;;;;;;;355.87;181.13;;;;;;;;;;4949371;28;20193;-49
2023/01/28 08:37:47;;;;;;;379.70;186.60;;;;;;;;;;4950926;28;20692;-49
2023/01/28 08:40:13;;;;;;;329.07;162.40;;;;;;;;;;4944916;28;20264;-48
2023/01/28 08:42:40;;;;;;;423.10;214.63;;;;;;;;;;4949346;28;20712;-51
2023/01/28 08:45:07;;;;;;;404.13;198.60;;;;;;;;;;4942481;28;20229;-49
2023/01/28 08:47:33;;;;;;;384.23;190.10;;;;;;;;;;4944944;28;20769;-49
2023/01/28 08:49:59;;;;;;;336.67;171.87;;;;;;;;;;4969091;28;20214;-49
2023/01/28 08:52:25;;;;;;;367.60;185.60;;;;;;;;;;4952389;28;20214;-50
2023/01/28 08:54:54;;;;;;;408.17;204.77;;;;;;;;;;4965304;28;20667;-50
2023/01/28 08:57:22;;;;;;;358.90;174.90;;;;;;;;;;4962559;28;20218;-50
2023/01/28 08:59:48;;;;;;;388.57;188.50;;;;;;;;;;4981390;28;20309;-51
2023/01/28 09:02:15;;;;;;;342.57;161.93;;;;;;;;;;5002159;28;20225;-50
2023/01/28 09:04:41;;;;;;;323.40;157.50;;;;;;;;;;4987086;28;20217;-50
2023/01/28 09:07:07;;;;;;;351.57;169.97;;;;;;;;;;4991292;28;20329;-50
2023/01/28 09:09:33;;;;;;;386.00;184.00;;;;;;;;;;5027592;28;20720;-49
2023/01/28 09:11:59;;;;;;;398.13;193.97;;;;;;;;;;5042556;28;20233;-49
2023/01/28 09:14:26;;;;;;;379.50;182.73;;;;;;;;;;5017206;28;20252;-49
2023/01/28 09:16:52;;;;;;;400.27;190.33;;;;;;;;;;4971359;28;20226;-49
2023/01/28 09:19:18;;;;;;;329.20;159.00;;;;;;;;;;4975647;28;20275;-49
2023/01/28 09:21:44;;;;;;;352.20;175.43;;;;;;;;;;4973702;28;20214;-50
2023/01/28 09:24:11;;;;;;;337.83;168.07;;;;;;;;;;4972700;28;20285;-49
2023/01/28 09:26:37;;;;;;;344.43;168.77;;;;;;;;;;4978825;28;20186;-50
2023/01/28 09:29:03;;;;;;;410.17;195.23;;;;;;;;;;4991612;28;20264;-50
2023/01/28 09:31:29;;;;;;;360.17;166.87;;;;;;;;;;4969253;28;20301;-49
2023/01/28 09:33:56;;;;;;;439.47;213.37;;;;;;;;;;5010632;28;20715;-49
2023/01/28 09:36:22;;;;;;;371.77;178.63;;;;;;;;;;4989928;28;20222;-49
2023/01/28 09:38:49;;;;;;;429.83;207.83;;;;;;;;;;5012368;28;20314;-50
2023/01/28 09:41:27;;;;;;;430.40;211.03;;;;;;;;;;4972675;28;20209;-49
2023/01/28 09:44:05;;;;;;;473.00;231.53;;;;;;;;;;4976060;28;20303;-49
2023/01/28 09:46:36;;;;;;;418.13;194.90;;;;;;;;;;4974045;28;20203;-50
2023/01/28 09:49:05;;;;;;;475.27;233.27;;;;;;;;;;4985533;28;20218;-50
2023/01/28 09:51:34;;;;;;;437.27;208.03;;;;;;;;;;5000893;28;20220;-49
2023/01/28 09:54:04;;;;;;;484.57;238.83;;;;;;;;;;4985874;28;20687;-51
2023/01/28 09:56:34;;;;;;;423.03;195.60;;;;;;;;;;4981669;28;20198;-50
2023/01/28 09:59:15;;;;;;;433.63;214.43;;;;;;;;;;5006100;28;20249;-50
2023/01/28 10:01:46;;;;;;;463.97;226.10;;;;;;;;;;4981164;28;20234;-50
2023/01/28 10:04:12;;;;;;;248.00;118.00;;;;;;;;;;4995796;28;20222;-50
2023/01/28 10:06:38;;;;;;;238.87;113.50;;;;;;;;;;4999377;28;20580;-51
2023/01/28 10:09:13;;;;;;;230.70;110.10;;;;;;;;;;5026955;28;20226;-51
2023/01/28 10:11:45;;;;;;;236.73;112.63;;;;;;;;;;4973743;28;20236;-49
2023/01/28 10:14:27;;;;;;;234.00;112.77;;;;;;;;;;4996225;28;20193;-48
2023/01/28 10:17:14;;;;;;;237.60;114.90;;;;;;;;;;4997857;28;20210;-49
2023/01/28 10:19:43;;;;;;;231.50;112.37;;;;;;;;;;4982227;28;20214;-50
2023/01/28 10:22:12;;;;;;;222.17;106.73;;;;;;;;;;5016002;28;20218;-49
2023/01/28 10:24:44;;;;;;;239.97;114.23;;;;;;;;;;4994738;28;20230;-48
2023/01/28 10:27:21;;;;;;;232.27;110.43;;;;;;;;;;5016381;28;20207;-49
2023/01/28 10:29:48;;;;;;;226.93;110.17;;;;;;;;;;5000563;28;20385;-49
2023/01/28 10:32:14;;;;;;;244.13;116.97;;;;;;;;;;4995138;28;20238;-48
2023/01/28 10:34:40;;;;;;;237.60;114.63;;;;;;;;;;4980608;28;20262;-49
2023/01/28 10:37:09;;;;;;;216.27;103.57;;;;;;;;;;4986964;28;20518;-50
2023/01/28 10:39:35;;;;;;;223.63;106.33;;;;;;;;;;5004223;28;20255;-49
2023/01/28 10:42:00;;;;;;;228.80;109.03;;;;;;;;;;4973813;28;20809;-50
2023/01/28 10:44:31;;;;;;;234.23;110.80;;;;;;;;;;4989105;28;20258;-49
2023/01/28 10:46:59;;;;;;;235.13;111.83;;;;;;;;;;4995958;28;20287;-50
2023/01/28 10:49:29;;;;;;;231.60;110.30;;;;;;;;;;4992609;28;20230;-50
2023/01/28 10:51:56;;;;;;;233.77;112.80;;;;;;;;;;5014519;28;20222;-49
2023/01/28 10:54:23;;;;;;;235.80;112.63;;;;;;;;;;4999881;28;20268;-48
2023/01/28 10:56:51;;;;;;;245.13;116.33;;;;;;;;;;5003368;28;20257;-49
2023/01/28 10:59:40;;;;;;;247.47;117.73;;;;;;;;;;4976326;28;20719;-50
2023/01/28 11:02:25;;;;;;;234.27;112.40;;;;;;;;;;5003481;28;20255;-49
2023/01/28 11:05:06;;;;;;;240.13;115.13;;;;;;;;;;4983532;28;20287;-49
2023/01/28 11:07:32;;;;;;;231.87;111.77;;;;;;;;;;4965392;28;20267;-50
2023/01/28 11:09:58;;;;;;;233.07;111.13;;;;;;;;;;5014413;28;20222;-49
2023/01/28 11:12:29;;;;;;;243.67;113.83;;;;;;;;;;5020638;28;20693;-49
2023/01/28 11:15:05;;;;;;;245.20;115.30;;;;;;;;;;4972788;28;20233;-49
2023/01/28 11:17:33;;;;;;;246.40;116.20;;;;;;;;;;4973250;28;20273;-49
2023/01/28 11:20:00;;;;;;;249.20;116.30;;;;;;;;;;4966069;28;20715;-49
2023/01/28 11:22:37;;;;;;;246.60;117.23;;;;;;;;;;4969237;28;20210;-50
2023/01/28 11:25:27;;;;;;;243.57;114.53;;;;;;;;;;4968194;28;20217;-49
2023/01/28 11:27:53;;;;;;;244.60;116.10;;;;;;;;;;4981246;28;20217;-50
2023/01/28 11:30:31;;;;;;;232.57;111.03;;;;;;;;;;4971731;28;20265;-49
2023/01/28 11:33:17;;;;;;;470.27;229.97;;;;;;;;;;4976721;28;20735;-50
2023/01/28 11:35:52;;;;;;;430.27;207.63;;;;;;;;;;4986566;28;20194;-50
2023/01/28 11:38:21;;;;;;;424.33;200.13;;;;;;;;;;4994357;28;20215;-49
2023/01/28 11:40:55;;;;;;;449.30;217.77;;;;;;;;;;4980887;28;20735;-49
2023/01/28 11:43:22;;;;;;;482.27;228.00;;;;;;;;;;4977062;28;20761;-49
2023/01/28 11:46:09;;;;;;;428.60;199.20;;;;;;;;;;4977184;28;20226;-50
2023/01/28 11:48:42;;;;;;;489.50;234.73;;;;;;;;;;4985266;28;20241;-50
2023/01/28 11:51:27;;;;;;;439.80;210.90;;;;;;;;;;4986649;28;20245;-50
2023/01/28 11:54:00;;;;;;;431.97;212.37;;;;;;;;;;4986221;28;20349;-50
2023/01/28 11:56:32;;;;;;;421.23;202.43;;;;;;;;;;4966037;28;20189;-50
2023/01/28 11:59:18;;;;;;;433.80;210.30;;;;;;;;;;4984261;28;20729;-50
2023/01/28 12:01:53;;;;;;;419.40;201.43;;;;;;;;;;5006567;28;20275;-50
2023/01/28 12:04:45;;;;;;;490.40;229.67;;;;;;;;;;4987473;28;20655;-50
2023/01/28 12:07:37;;;;;;;445.10;208.83;;;;;;;;;;4984363;28;20677;-49
2023/01/28 12:10:15;;;;;;;501.67;244.90;;;;;;;;;;4990303;28;20549;-50
2023/01/28 12:12:48;;;;;;;450.87;215.20;;;;;;;;;;4971687;28;20621;-51
2023/01/28 12:15:39;;;;;;;460.17;229.10;;;;;;;;;;4987208;28;20226;-49
2023/01/28 12:18:23;;;;;;;474.27;230.23;;;;;;;;;;4968437;28;20289;-50
2023/01/28 12:20:50;;;;;;;447.73;220.50;;;;;;;;;;4984555;28;20232;-51
2023/01/28 12:23:31;;;;;;;455.53;217.77;;;;;;;;;;4969552;28;20210;-51
2023/01/28 12:26:30;;;;;;;481.83;239.00;;;;;;;;;;4959862;28;20288;-50
2023/01/28 12:29:01;;;;;;;487.00;233.10;;;;;;;;;;4961859;28;20230;-50
2023/01/28 12:31:36;;;;;;;457.70;213.33;;;;;;;;;;4967314;28;20215;-50
2023/01/28 12:34:26;;;;;;;475.07;228.53;;;;;;;;;;4981138;28;20214;-50
2023/01/28 12:37:15;;;;;;;480.80;235.47;;;;;;;;;;4959548;28;20214;-50
2023/01/28 12:40:00;;;;;;;447.20;215.60;;;;;;;;;;4960924;28;20743;-50
2023/01/28 12:42:38;;;;;;;480.20;228.53;;;;;;;;;;4959621;28;20210;-51
2023/01/28 12:45:25;;;;;;;472.03;227.40;;;;;;;;;;4967914;28;20221;-51
2023/01/28 12:47:57;;;;;;;498.57;237.77;;;;;;;;;;4954135;28;20214;-51
2023/01/28 12:50:37;;;;;;;462.07;217.67;;;;;;;;;;4961754;28;20229;-52
2023/01/28 12:53:31;;;;;;;487.63;232.20;;;;;;;;;;4968713;28;20585;-48
2023/01/28 12:56:02;;;;;;;500.63;240.40;;;;;;;;;;4960588;28;20229;-49
2023/01/28 12:58:36;;;;;;;471.40;222.63;;;;;;;;;;4988905;28;20221;-49
2023/01/28 13:01:07;;;;;;;464.13;223.80;;;;;;;;;;4957318;28;20329;-49
2023/01/28 13:04:02;;;;;;;536.43;271.63;;;;;;;;;;5010883;22;20233;-48
2023/01/28 13:06:34;;;;;;;593.73;299.37;;;;;;;;;;4964287;28;20279;-48
2023/01/28 13:09:01;;;;;;;515.33;251.50;;;;;;;;;;4980455;28;20370;-48
2023/01/28 13:11:35;;;;;;;593.30;299.17;;;;;;;;;;4978819;28;20188;-48
2023/01/28 13:14:02;;;;;;;578.77;300.23;;;;;;;;;;4978316;28;20182;-48
2023/01/28 13:16:28;;;;;;;513.17;263.57;;;;;;;;;;4979580;28;20615;-48
2023/01/28 13:19:04;;;;;;;577.77;293.47;;;;;;;;;;4978944;28;20283;-48
2023/01/28 13:21:32;;;;;;;603.43;313.10;;;;;;;;;;4960491;28;20279;-48
2023/01/28 13:24:01;;;;;;;495.53;245.20;;;;;;;;;;4965368;28;20213;-47
2023/01/28 13:26:37;;;;;;;580.80;298.10;;;;;;;;;;4978295;28;20673;-47
2023/01/28 13:29:18;;;;;;;491.13;241.43;;;;;;;;;;4977626;28;20209;-47
2023/01/28 13:31:46;;;;;;;500.50;242.73;;;;;;;;;;4979045;28;20248;-48
2023/01/28 13:34:28;;;;;;;503.93;259.40;;;;;;;;;;4978198;28;20225;-49
2023/01/28 13:36:56;;;;;;;608.07;303.23;;;;;;;;;;4979652;28;20657;-49
2023/01/28 13:39:23;;;;;;;520.10;258.57;;;;;;;;;;4978458;28;20225;-48
2023/01/28 13:41:50;;;;;;;608.60;316.17;;;;;;;;;;4976217;28;20574;-48
2023/01/28 13:44:17;;;;;;;529.23;258.30;;;;;;;;;;4976162;28;20257;-49
2023/01/28 13:46:44;;;;;;;586.50;300.53;;;;;;;;;;4969700;28;20325;-49
2023/01/28 13:49:15;;;;;;;590.37;299.73;;;;;;;;;;4960263;28;20709;-47
2023/01/28 13:51:45;;;;;;;602.20;305.00;;;;;;;;;;4978942;28;20626;-48
2023/01/28 13:54:20;;;;;;;497.27;243.40;;;;;;;;;;5016150;28;20309;-47
2023/01/28 13:57:05;;;;;;;604.90;306.80;;;;;;;;;;5079831;28;20783;-48
2023/01/28 13:59:31;;;;;;;496.47;248.63;;;;;;;;;;5079643;28;20366;-48
2023/01/28 14:02:07;;;;;;;605.13;303.63;;;;;;;;;;5078351;28;20240;-49
2023/01/28 14:04:36;;;;;;;520.93;258.73;;;;;;;;;;4958628;28;20296;-49
2023/01/28 14:07:08;;;;;;;523.83;259.83;;;;;;;;;;4959076;28;20246;-49
2023/01/28 14:09:49;;;;;;;557.50;275.73;;;;;;;;;;4959346;28;20283;-49
2023/01/28 14:12:35;;;;;;;513.63;251.80;;;;;;;;;;4978421;28;20225;-48
2023/01/28 14:15:12;;;;;;;496.10;241.30;;;;;;;;;;4977747;28;20225;-48
2023/01/28 14:17:44;;;;;;;589.73;307.70;;;;;;;;;;4975505;28;20591;-48
2023/01/28 14:20:16;;;;;;;560.80;293.87;;;;;;;;;;4978524;28;20612;-48
2023/01/28 14:22:43;;;;;;;556.73;282.43;;;;;;;;;;4977264;28;20425;-48
2023/01/28 14:25:15;;;;;;;495.47;245.77;;;;;;;;;;4976324;28;20220;-49
2023/01/28 14:27:43;;;;;;;506.53;256.10;;;;;;;;;;4977640;28;20555;-47
2023/01/28 14:30:19;;;;;;;521.80;268.67;;;;;;;;;;4977004;28;20643;-49
2023/01/28 14:32:51;;;;;;;574.63;290.63;;;;;;;;;;4977575;28;20788;-49
2023/01/28 14:35:19;;;;;;;550.57;286.80;;;;;;;;;;4974168;28;20174;-49
2023/01/28 14:37:46;;;;;;;627.83;322.77;;;;;;;;;;4975349;28;20370;-49
2023/01/28 14:40:14;;;;;;;537.17;266.93;;;;;;;;;;4977194;28;20308;-48
2023/01/28 14:42:42;;;;;;;618.67;318.97;;;;;;;;;;4976454;28;20252;-48
2023/01/28 14:45:27;;;;;;;580.57;305.23;;;;;;;;;;4976008;28;20229;-48